Skip Navigation LinksHome page > Weather > Current weather Skip Navigation Links

Current Weather

Heathrow, London

For information only: do not use for flight planning or navigation.
Latest weather
Observation time Friday, August 28, 2015 7:50 AM BST
Local time Friday, August 28, 2015 8:23 AM BST
Flight conditions Visual Meteorological Conditions
Winds
Wind direction Southwest (220°)
Winds variable from 190° to 260°
Wind speed 7 mph
Visibility 6.2 mi.
Sky condition
Ceiling unlimited
Sky clear
Temperature 55°F
Dewpoint 52°F
Altimeter 29.97 in.Hg
Derived measurements
Relative humidity 88%
Density altitude -112 ft.
Remarks
Ceiling and visibility OK.
No significant changes expected in the next two hours.
METAR EGLL 280650Z 22006KT 190V260 CAVOK 13/11 Q1015 NOSIG

Settings

Location code

InnerDrive.Weather 4.0.5567.0 Release CLR 4.0.30319.34014
Copyright ©2015 Inner Drive Technology. All rights reserved. Portions Copyright ©1986-2015 David Braverman.

Find weather

Site navigation


Skip Navigation Links

Place info

Page info

PayPal - The safer, easier way to pay online!

Return home.

Copyright ©2015 Inner Drive Technology. Purveyors of fine, hand-crafted computer software. Page printed 2015-08-28T07:23:24 UTC.